Time,TemperatureF,DewpointF,PressureIn,WindDirection,WindDirectionDegrees,WindSpeedMPH,WindSpeedGustMPH,Humidity,HourlyPrecipIn,Conditions,Clouds,dailyrainin,SoftwareType,DateUTC
2013-03-08 00:01:00,55.2,54.7,30.40,SE,135,1.6,3.1,98,0.00,,,0.00,pywws,2013-03-07 23:01:00,
2013-03-08 00:04:00,55.2,54.7,30.40,SE,135,1.6,2.2,98,0.00,,,0.06,pywws,2013-03-07 23:04:00,
2013-03-08 00:06:00,55.8,55.2,30.40,East,90,1.6,2.2,98,0.00,,,0.00,pywws,2013-03-07 23:06:00,
2013-03-08 00:11:00,55.8,55.2,30.40,North,0,0.0,1.6,98,0.00,,,0.00,pywws,2013-03-07 23:11:00,
2013-03-08 00:16:00,55.6,54.7,30.39,East,90,0.0,1.6,97,0.00,,,0.00,pywws,2013-03-07 23:16:00,
2013-03-08 00:21:00,55.2,54.4,30.39,NW,315,0.0,2.2,97,0.00,,,0.00,pywws,2013-03-07 23:21:00,
2013-03-08 00:26:00,55.6,55.0,30.39,East,90,0.7,2.2,98,0.00,,,0.00,pywws,2013-03-07 23:26:00,
2013-03-08 00:31:00,55.0,54.5,30.39,SE,135,0.7,2.2,98,0.00,,,0.00,pywws,2013-03-07 23:31:00,
2013-03-08 00:36:00,55.6,55.0,30.39,SE,135,0.0,1.6,98,0.00,,,0.00,pywws,2013-03-07 23:36:00,
2013-03-08 00:41:00,55.8,55.2,30.39,East,90,1.6,3.1,98,0.00,,,0.00,pywws,2013-03-07 23:41:00,
2013-03-08 00:46:00,54.5,54.2,30.39,SE,135,1.6,2.2,99,0.00,,,0.00,pywws,2013-03-07 23:46:00,
2013-03-08 00:51:00,54.9,54.6,30.39,SE,135,0.7,2.2,99,0.00,,,0.00,pywws,2013-03-07 23:51:00,
2013-03-08 01:01:00,55.6,55.3,30.39,NE,45,0.0,0.0,99,0.00,,,0.00,pywws,2013-03-08 00:01:00,
2013-03-08 01:04:00,54.7,54.4,30.39,North,0,0.0,0.0,99,0.00,,,0.00,pywws,2013-03-08 00:04:00,
2013-03-08 01:06:00,55.6,55.3,30.39,North,0,0.0,0.0,99,0.00,,,0.00,pywws,2013-03-08 00:06:00,
2013-03-08 01:11:00,54.1,53.9,30.39,North,0,0.0,0.0,99,0.00,,,0.00,pywws,2013-03-08 00:11:00,
2013-03-08 01:16:00,55.4,55.1,30.39,NW,315,0.0,0.0,99,0.00,,,0.00,pywws,2013-03-08 00:16:00,
2013-03-08 01:21:00,54.0,53.7,30.39,NW,315,0.0,0.0,99,0.00,,,0.00,pywws,2013-03-08 00:21:00,
2013-03-08 01:26:00,54.5,54.2,30.39,NW,315,0.0,0.0,99,0.00,,,0.00,pywws,2013-03-08 00:26:00,
2013-03-08 01:31:00,54.3,54.0,30.39,NW,315,1.6,2.2,99,0.00,,,0.00,pywws,2013-03-08 00:31:00,
2013-03-08 01:36:00,54.9,54.6,30.39,NW,315,0.0,0.0,99,0.00,,,0.00,pywws,2013-03-08 00:36:00,
2013-03-08 01:41:00,54.5,54.2,30.38,NW,315,0.0,0.0,99,0.00,,,0.00,pywws,2013-03-08 00:41:00,
2013-03-08 01:46:00,52.9,52.6,30.38,North,0,0.0,1.6,99,0.00,,,0.00,pywws,2013-03-08 00:46:00,
2013-03-08 01:51:00,54.1,53.9,30.38,East,90,0.7,2.2,99,0.00,,,0.00,pywws,2013-03-08 00:51:00,
2013-03-08 02:01:00,54.3,54.0,30.38,North,0,0.0,0.0,99,0.00,,,0.00,pywws,2013-03-08 01:01:00,
2013-03-08 02:04:00,54.3,54.0,30.38,North,0,0.0,0.7,99,0.00,,,0.00,pywws,2013-03-08 01:04:00,
2013-03-08 02:06:00,54.5,54.2,30.38,North,0,0.7,1.6,99,0.00,,,0.00,pywws,2013-03-08 01:06:00,
2013-03-08 02:11:00,54.5,54.2,30.38,NE,45,0.0,1.6,99,0.00,,,0.00,pywws,2013-03-08 01:11:00,
2013-03-08 02:16:00,54.1,53.9,30.38,East,90,0.7,2.2,99,0.00,,,0.00,pywws,2013-03-08 01:16:00,
2013-03-08 02:21:00,54.1,53.9,30.37,East,90,0.7,1.6,99,0.00,,,0.00,pywws,2013-03-08 01:21:00,
2013-03-08 02:26:00,54.5,54.2,30.37,South,180,0.0,0.0,99,0.00,,,0.00,pywws,2013-03-08 01:26:00,
2013-03-08 02:31:00,53.6,53.3,30.37,North,0,0.0,0.0,99,0.00,,,0.00,pywws,2013-03-08 01:31:00,
2013-03-08 02:36:00,53.8,53.5,30.37,East,90,0.0,1.6,99,0.00,,,0.00,pywws,2013-03-08 01:36:00,
2013-03-08 02:41:00,54.1,53.9,30.37,SW,225,0.0,0.7,99,0.00,,,0.00,pywws,2013-03-08 01:41:00,
2013-03-08 02:46:00,53.2,53.0,30.37,NW,315,0.0,0.0,99,0.00,,,0.00,pywws,2013-03-08 01:46:00,
2013-03-08 02:51:00,53.8,53.5,30.37,SW,225,0.0,0.0,99,0.00,,,0.00,pywws,2013-03-08 01:51:00,
2013-03-08 03:01:00,54.5,54.2,30.38,North,0,0.0,0.7,99,0.00,,,0.00,pywws,2013-03-08 02:01:00,
2013-03-08 03:04:00,54.0,53.7,30.37,South,180,0.0,0.0,99,0.00,,,0.00,pywws,2013-03-08 02:04:00,
2013-03-08 03:06:00,54.0,53.7,30.37,North,0,0.0,0.0,99,0.00,,,0.00,pywws,2013-03-08 02:06:00,
2013-03-08 03:11:00,53.8,53.5,30.37,North,0,0.0,0.0,99,0.00,,,0.00,pywws,2013-03-08 02:11:00,
2013-03-08 03:16:00,53.6,53.3,30.37,SE,135,1.6,3.8,99,0.00,,,0.00,pywws,2013-03-08 02:16:00,
2013-03-08 03:21:00,54.5,54.2,30.37,SE,135,6.9,13.6,99,0.00,,,0.00,pywws,2013-03-08 02:21:00,
2013-03-08 03:26:00,55.0,54.8,30.37,East,90,6.0,12.1,99,0.00,,,0.00,pywws,2013-03-08 02:26:00,
2013-03-08 03:31:00,56.3,55.7,30.37,SE,135,7.6,11.4,98,0.00,,,0.00,pywws,2013-03-08 02:31:00,
2013-03-08 03:36:00,55.9,55.1,30.37,SE,135,6.9,10.7,97,0.00,,,0.00,pywws,2013-03-08 02:36:00,
2013-03-08 03:41:00,55.4,54.3,30.37,SE,135,6.9,9.2,96,0.00,,,0.00,pywws,2013-03-08 02:41:00,
2013-03-08 03:46:00,55.8,54.6,30.37,NE,45,3.8,5.4,96,0.00,,,0.00,pywws,2013-03-08 02:46:00,
2013-03-08 03:51:00,56.1,55.0,30.37,SE,135,5.4,8.3,96,0.00,,,0.00,pywws,2013-03-08 02:51:00,
2013-03-08 04:01:00,55.9,54.8,30.37,NE,45,5.4,8.3,96,0.00,,,0.00,pywws,2013-03-08 03:01:00,
2013-03-08 04:04:00,56.1,55.0,30.37,SE,135,3.1,6.0,96,0.00,,,0.00,pywws,2013-03-08 03:04:00,
2013-03-08 04:06:00,55.6,54.5,30.37,SE,135,4.5,6.9,96,0.00,,,0.00,pywws,2013-03-08 03:06:00,
2013-03-08 04:11:00,55.8,54.6,30.37,East,90,3.1,6.0,96,0.00,,,0.00,pywws,2013-03-08 03:11:00,
2013-03-08 04:16:00,55.4,54.0,30.36,South,180,3.8,6.9,95,0.00,,,0.00,pywws,2013-03-08 03:16:00,
2013-03-08 04:21:00,55.4,54.0,30.37,SE,135,6.9,10.7,95,0.00,,,0.00,pywws,2013-03-08 03:21:00,
2013-03-08 04:26:00,55.9,54.5,30.36,SE,135,0.7,3.8,95,0.00,,,0.00,pywws,2013-03-08 03:26:00,
2013-03-08 04:31:00,55.6,54.2,30.37,South,180,5.4,9.2,95,0.00,,,0.00,pywws,2013-03-08 03:31:00,
2013-03-08 04:36:00,55.9,54.5,30.37,SE,135,2.2,5.4,95,0.00,,,0.00,pywws,2013-03-08 03:36:00,
2013-03-08 04:41:00,55.8,54.3,30.37,SE,135,1.6,3.1,95,0.00,,,0.00,pywws,2013-03-08 03:41:00,
2013-03-08 04:46:00,55.9,54.5,30.36,SE,135,1.6,3.1,95,0.00,,,0.00,pywws,2013-03-08 03:46:00,
2013-03-08 04:51:00,55.8,54.1,30.36,South,180,0.7,2.2,94,0.00,,,0.00,pywws,2013-03-08 03:51:00,
2013-03-08 05:01:00,55.6,54.2,30.36,NW,315,0.7,3.1,95,0.00,,,0.00,pywws,2013-03-08 04:01:00,
2013-03-08 05:04:00,55.6,54.2,30.36,SE,135,2.2,4.5,95,0.00,,,0.00,pywws,2013-03-08 04:04:00,
2013-03-08 05:06:00,56.3,54.9,30.37,East,90,6.0,12.1,95,0.00,,,0.00,pywws,2013-03-08 04:06:00,
2013-03-08 05:11:00,55.4,54.0,30.36,East,90,3.1,6.9,95,0.00,,,0.00,pywws,2013-03-08 04:11:00,
2013-03-08 05:16:00,55.9,54.2,30.37,East,90,6.0,9.2,94,0.00,,,0.00,pywws,2013-03-08 04:16:00,
2013-03-08 05:21:00,55.9,54.2,30.37,SE,135,3.8,6.9,94,0.00,,,0.00,pywws,2013-03-08 04:21:00,
2013-03-08 05:26:00,55.8,54.1,30.37,East,90,0.7,1.6,94,0.00,,,0.00,pywws,2013-03-08 04:26:00,
2013-03-08 05:31:00,55.8,54.1,30.37,North,0,0.0,0.7,94,0.00,,,0.00,pywws,2013-03-08 04:31:00,
2013-03-08 05:36:00,55.8,54.3,30.36,North,0,0.0,0.7,95,0.00,,,0.00,pywws,2013-03-08 04:36:00,
2013-03-08 05:41:00,55.0,53.3,30.36,South,180,0.0,0.7,94,0.00,,,0.00,pywws,2013-03-08 04:41:00,
2013-03-08 05:46:00,55.4,53.7,30.37,North,0,0.0,0.0,94,0.00,,,0.00,pywws,2013-03-08 04:46:00,
2013-03-08 05:51:00,55.0,53.3,30.37,NE,45,0.0,0.0,94,0.00,,,0.00,pywws,2013-03-08 04:51:00,
2013-03-08 06:01:00,54.1,52.7,30.37,SE,135,0.0,2.2,95,0.00,,,0.00,pywws,2013-03-08 05:01:00,
2013-03-08 06:03:00,55.4,54.0,30.37,SE,135,0.7,1.6,95,0.00,,,0.00,pywws,2013-03-08 05:03:00,
2013-03-08 06:06:00,56.1,55.0,30.37,North,0,0.7,2.2,96,0.00,,,0.00,pywws,2013-03-08 05:06:00,
2013-03-08 06:11:00,54.9,53.7,30.37,SE,135,6.9,10.7,96,0.00,,,0.00,pywws,2013-03-08 05:11:00,
2013-03-08 06:16:00,55.2,54.4,30.37,East,90,3.1,6.0,97,0.00,,,0.00,pywws,2013-03-08 05:16:00,
2013-03-08 06:21:00,55.6,54.7,30.37,SE,135,10.7,16.8,97,0.00,,,0.00,pywws,2013-03-08 05:21:00,
2013-03-08 06:26:00,55.4,54.8,30.37,ESE,112,8.3,13.0,98,0.00,,,0.00,pywws,2013-03-08 05:26:00,
2013-03-08 06:31:00,55.8,55.5,30.37,SE,135,11.4,20.6,99,0.00,,,0.00,pywws,2013-03-08 05:31:00,
2013-03-08 06:36:00,55.2,54.9,30.37,SE,135,10.7,16.8,99,0.00,,,0.00,pywws,2013-03-08 05:36:00,
2013-03-08 06:41:00,55.4,55.1,30.37,South,180,6.9,15.2,99,0.00,,,0.00,pywws,2013-03-08 05:41:00,
2013-03-08 06:46:00,55.0,54.8,30.37,East,90,10.7,16.8,99,0.00,,,0.00,pywws,2013-03-08 05:46:00,
2013-03-08 06:51:00,54.9,54.6,30.37,East,90,9.8,19.7,99,0.00,,,0.00,pywws,2013-03-08 05:51:00,
2013-03-08 07:01:00,55.4,54.8,30.36,SE,135,12.1,19.7,98,0.00,,,0.00,pywws,2013-03-08 06:01:00,
2013-03-08 07:03:00,55.0,54.5,30.37,South,180,7.6,11.4,98,0.00,,,0.00,pywws,2013-03-08 06:03:00,
2013-03-08 07:06:00,55.6,54.7,30.36,South,180,8.3,15.9,97,0.00,,,0.00,pywws,2013-03-08 06:06:00,
2013-03-08 07:11:00,55.6,54.5,30.36,East,90,9.2,14.5,96,0.00,,,0.00,pywws,2013-03-08 06:11:00,
2013-03-08 07:16:00,55.6,54.2,30.36,SE,135,6.0,10.7,95,0.00,,,0.00,pywws,2013-03-08 06:16:00,
2013-03-08 07:21:00,56.1,54.4,30.36,North,0,3.8,6.9,94,0.00,,,0.00,pywws,2013-03-08 06:21:00,
2013-03-08 07:26:00,55.8,53.8,30.36,SE,135,11.4,16.8,93,0.00,,,0.00,pywws,2013-03-08 06:26:00,
2013-03-08 07:31:00,56.5,54.2,30.36,SE,135,4.5,7.6,92,0.00,,,0.00,pywws,2013-03-08 06:31:00,
2013-03-08 07:36:00,57.2,54.6,30.36,South,180,7.6,13.6,91,0.00,,,0.00,pywws,2013-03-08 06:36:00,
2013-03-08 07:41:00,56.3,53.4,30.36,East,90,9.8,15.9,90,0.00,,,0.00,pywws,2013-03-08 06:41:00,
2013-03-08 07:46:00,56.5,53.6,30.35,East,90,9.8,15.2,90,0.00,,,0.00,pywws,2013-03-08 06:46:00,
2013-03-08 07:51:00,57.9,54.7,30.35,SW,225,6.0,10.7,89,0.00,,,0.00,pywws,2013-03-08 06:51:00,
2013-03-08 08:01:00,57.7,53.9,30.35,SE,135,7.6,15.2,87,0.00,,,0.00,pywws,2013-03-08 07:01:00,
2013-03-08 08:04:00,58.8,55.0,30.36,SE,135,6.9,13.0,87,0.00,,,0.00,pywws,2013-03-08 07:04:00,
2013-03-08 08:06:00,58.6,55.1,30.35,SE,135,1.6,3.8,88,0.00,,,0.00,pywws,2013-03-08 07:06:00,
2013-03-08 08:11:00,58.8,54.3,30.35,East,90,6.0,10.7,85,0.00,,,0.00,pywws,2013-03-08 07:11:00,
2013-03-08 08:16:00,60.4,55.6,30.36,SE,135,4.5,9.8,84,0.00,,,0.00,pywws,2013-03-08 07:16:00,
2013-03-08 08:21:00,59.7,54.5,30.36,SE,135,6.9,11.4,83,0.00,,,0.00,pywws,2013-03-08 07:21:00,
2013-03-08 08:26:00,59.7,54.9,30.36,SE,135,8.3,12.1,84,0.00,,,0.00,pywws,2013-03-08 07:26:00,
2013-03-08 08:31:00,59.9,55.1,30.37,East,90,6.9,10.7,84,0.00,,,0.00,pywws,2013-03-08 07:31:00,
2013-03-08 08:36:00,59.4,54.8,30.37,SE,135,7.6,15.9,85,0.00,,,0.00,pywws,2013-03-08 07:36:00,
2013-03-08 08:41:00,59.0,54.8,30.37,East,90,5.4,9.8,86,0.00,,,0.00,pywws,2013-03-08 07:41:00,
2013-03-08 08:46:00,59.9,55.1,30.37,SE,135,9.8,15.9,84,0.00,,,0.00,pywws,2013-03-08 07:46:00,
2013-03-08 08:51:00,60.3,55.1,30.36,East,90,6.9,10.7,83,0.00,,,0.00,pywws,2013-03-08 07:51:00,
2013-03-08 09:01:00,60.3,55.4,30.36,South,180,9.2,16.8,84,0.00,,,0.00,pywws,2013-03-08 08:01:00,
2013-03-08 09:04:00,60.6,55.4,30.36,SE,135,10.7,19.0,83,0.00,,,0.00,pywws,2013-03-08 08:04:00,
2013-03-08 09:06:00,60.3,55.7,30.36,SE,135,10.7,17.5,85,0.00,,,0.00,pywws,2013-03-08 08:06:00,
2013-03-08 09:11:00,60.3,55.4,30.37,South,180,11.4,15.2,84,0.00,,,0.00,pywws,2013-03-08 08:11:00,
2013-03-08 09:16:00,61.7,55.8,30.37,SE,135,10.7,18.3,81,0.00,,,0.00,pywws,2013-03-08 08:16:00,
2013-03-08 09:21:00,61.5,55.6,30.37,SE,135,4.5,7.6,81,0.00,,,0.00,pywws,2013-03-08 08:21:00,
2013-03-08 09:26:00,61.7,55.5,30.37,SE,135,9.2,13.6,80,0.00,,,0.00,pywws,2013-03-08 08:26:00,
2013-03-08 09:31:00,59.9,54.7,30.37,SE,135,6.9,13.6,83,0.00,,,0.00,pywws,2013-03-08 08:31:00,
2013-03-08 09:36:00,59.7,55.2,30.37,SE,135,3.1,9.8,85,0.00,,,0.00,pywws,2013-03-08 08:36:00,
2013-03-08 09:41:00,59.4,54.5,30.37,SE,135,6.0,9.8,84,0.00,,,0.00,pywws,2013-03-08 08:41:00,
2013-03-08 09:46:00,59.0,54.5,30.37,SE,135,6.0,10.7,85,0.00,,,0.00,pywws,2013-03-08 08:46:00,
2013-03-08 09:51:00,59.2,55.0,30.37,NE,45,6.0,12.1,86,0.00,,,0.00,pywws,2013-03-08 08:51:00,
2013-03-08 10:01:00,59.2,55.3,30.37,East,90,7.6,14.5,87,0.00,,,0.00,pywws,2013-03-08 09:01:00,
2013-03-08 10:04:00,58.8,55.0,30.37,East,90,6.9,9.8,87,0.00,,,0.00,pywws,2013-03-08 09:04:00,
2013-03-08 10:06:00,59.7,55.8,30.36,East,90,6.0,12.1,87,0.00,,,0.00,pywws,2013-03-08 09:06:00,
2013-03-08 10:11:00,58.5,54.6,30.37,East,90,9.2,13.6,87,0.00,,,0.00,pywws,2013-03-08 09:11:00,
2013-03-08 10:16:00,58.5,54.3,30.37,SE,135,4.5,9.2,86,0.00,,,0.00,pywws,2013-03-08 09:16:00,
2013-03-08 10:21:00,59.2,54.7,30.37,SE,135,1.6,3.1,85,0.00,,,0.00,pywws,2013-03-08 09:21:00,
2013-03-08 10:26:00,60.1,55.2,30.37,SE,135,6.9,11.4,84,0.00,,,0.00,pywws,2013-03-08 09:26:00,
2013-03-08 10:31:00,58.3,53.8,30.37,East,90,3.8,6.9,85,0.00,,,0.00,pywws,2013-03-08 09:31:00,
2013-03-08 10:36:00,61.0,56.4,30.37,East,90,2.2,6.0,85,0.00,,,0.00,pywws,2013-03-08 09:36:00,
2013-03-08 10:41:00,59.9,55.4,30.37,SW,225,3.1,8.3,85,0.00,,,0.00,pywws,2013-03-08 09:41:00,
2013-03-08 10:46:00,60.1,55.6,30.37,South,180,4.5,9.8,85,0.00,,,0.00,pywws,2013-03-08 09:46:00,
2013-03-08 10:51:00,60.1,55.2,30.37,East,90,6.9,12.1,84,0.00,,,0.00,pywws,2013-03-08 09:51:00,
2013-03-08 11:01:00,59.7,55.2,30.37,SE,135,6.0,13.0,85,0.00,,,0.00,pywws,2013-03-08 10:01:00,
2013-03-08 11:04:00,59.5,55.0,30.37,SW,225,2.2,4.5,85,0.00,,,0.00,pywws,2013-03-08 10:04:00,
2013-03-08 11:06:00,58.3,53.8,30.37,East,90,8.3,13.0,85,0.00,,,0.00,pywws,2013-03-08 10:06:00,
2013-03-08 11:11:00,59.0,55.1,30.37,ESE,112,9.2,13.0,87,0.01,,,0.01,pywws,2013-03-08 10:11:00,
2013-03-08 11:16:00,59.2,55.6,30.37,East,90,6.0,9.8,88,0.01,,,0.01,pywws,2013-03-08 10:16:00,
2013-03-08 11:21:00,59.0,55.4,30.37,SE,135,3.8,9.8,88,0.01,,,0.01,pywws,2013-03-08 10:21:00,
2013-03-08 11:26:00,58.3,54.4,30.37,East,90,6.9,13.6,87,0.01,,,0.01,pywws,2013-03-08 10:26:00,
2013-03-08 11:31:00,58.6,54.8,30.37,East,90,3.8,6.0,87,0.01,,,0.01,pywws,2013-03-08 10:31:00,
2013-03-08 11:36:00,59.7,55.2,30.36,SE,135,9.8,17.5,85,0.01,,,0.01,pywws,2013-03-08 10:36:00,
2013-03-08 11:41:00,59.9,55.4,30.36,East,90,6.0,9.8,85,0.01,,,0.01,pywws,2013-03-08 10:41:00,
2013-03-08 11:46:00,59.2,54.7,30.37,South,180,9.8,14.5,85,0.01,,,0.01,pywws,2013-03-08 10:46:00,
2013-03-08 11:51:00,59.9,55.4,30.37,South,180,2.2,5.4,85,0.01,,,0.01,pywws,2013-03-08 10:51:00,
2013-03-08 12:01:00,59.4,55.2,30.37,SE,135,4.5,7.6,86,0.01,,,0.01,pywws,2013-03-08 11:01:00,
2013-03-08 12:04:00,58.6,54.1,30.36,SE,135,9.8,15.9,85,0.01,,,0.01,pywws,2013-03-08 11:04:00,
2013-03-08 12:06:00,59.2,55.0,30.36,SE,135,6.9,15.2,86,0.01,,,0.01,pywws,2013-03-08 11:06:00,
2013-03-08 12:11:00,58.6,54.5,30.36,East,90,5.4,9.2,86,0.00,,,0.01,pywws,2013-03-08 11:11:00,
2013-03-08 12:16:00,59.9,56.0,30.35,SE,135,6.0,10.7,87,0.00,,,0.01,pywws,2013-03-08 11:16:00,
2013-03-08 12:21:00,59.5,55.3,30.35,North,0,2.2,3.8,86,0.00,,,0.01,pywws,2013-03-08 11:21:00,
2013-03-08 12:26:00,60.1,55.2,30.34,East,90,2.2,8.3,84,0.00,,,0.01,pywws,2013-03-08 11:26:00,
2013-03-08 12:31:00,61.0,55.8,30.34,NE,45,3.8,6.0,83,0.00,,,0.01,pywws,2013-03-08 11:31:00,
2013-03-08 12:36:00,60.6,55.4,30.34,NE,45,1.6,3.8,83,0.00,,,0.01,pywws,2013-03-08 11:36:00,
2013-03-08 12:41:00,60.4,54.9,30.34,NW,315,0.7,2.2,82,0.00,,,0.01,pywws,2013-03-08 11:41:00,
2013-03-08 12:46:00,61.2,55.6,30.35,SW,225,0.7,3.1,82,0.00,,,0.01,pywws,2013-03-08 11:46:00,
2013-03-08 12:51:00,59.7,54.2,30.35,SE,135,2.2,4.5,82,0.00,,,0.01,pywws,2013-03-08 11:51:00,
2013-03-08 13:01:00,59.4,55.2,30.33,South,180,6.0,10.7,86,0.00,,,0.01,pywws,2013-03-08 12:01:00,
2013-03-08 13:04:00,59.4,54.2,30.34,SE,135,4.5,9.2,83,0.00,,,0.01,pywws,2013-03-08 12:04:00,
2013-03-08 13:06:00,58.6,55.1,30.31,SE,135,11.4,15.9,88,0.01,,,0.02,pywws,2013-03-08 12:06:00,
2013-03-08 13:11:00,58.5,55.5,30.30,SE,135,7.6,13.6,90,0.01,,,0.02,pywws,2013-03-08 12:11:00,
2013-03-08 13:16:00,58.1,55.5,30.29,South,180,10.7,19.7,91,0.02,,,0.04,pywws,2013-03-08 12:16:00,
2013-03-08 13:21:00,56.8,54.2,30.29,SE,135,9.2,16.8,91,0.02,,,0.04,pywws,2013-03-08 12:21:00,
2013-03-08 13:26:00,58.1,55.5,30.31,SE,135,4.5,8.3,91,0.02,,,0.04,pywws,2013-03-08 12:26:00,
2013-03-08 13:31:00,58.5,55.8,30.32,SW,225,5.4,10.7,91,0.02,,,0.04,pywws,2013-03-08 12:31:00,
2013-03-08 13:36:00,58.5,56.1,30.31,West,270,3.1,6.0,92,0.02,,,0.04,pywws,2013-03-08 12:36:00,
2013-03-08 13:41:00,57.7,55.7,30.30,East,90,9.2,14.5,93,0.02,,,0.04,pywws,2013-03-08 12:41:00,
2013-03-08 13:46:00,57.2,55.5,30.29,East,90,7.6,12.1,94,0.02,,,0.04,pywws,2013-03-08 12:46:00,
2013-03-08 13:51:00,57.6,56.1,30.28,SE,135,8.3,14.5,95,0.05,,,0.06,pywws,2013-03-08 12:51:00,
2013-03-08 14:01:00,57.0,54.7,30.28,East,90,10.7,19.7,92,0.06,,,0.07,pywws,2013-03-08 13:01:00,
2013-03-08 14:04:00,56.5,54.5,30.28,East,90,13.0,18.3,93,0.05,,,0.06,pywws,2013-03-08 13:04:00,
2013-03-08 14:06:00,57.2,54.9,30.28,SE,135,12.1,18.3,92,0.05,,,0.07,pywws,2013-03-08 13:06:00,
2013-03-08 14:11:00,57.6,54.6,30.28,South,180,10.7,19.7,90,0.06,,,0.08,pywws,2013-03-08 13:11:00,
2013-03-08 14:16:00,58.1,54.6,30.28,East,90,9.2,13.6,88,0.05,,,0.08,pywws,2013-03-08 13:16:00,
2013-03-08 14:21:00,58.6,55.1,30.28,East,90,13.0,22.1,88,0.05,,,0.08,pywws,2013-03-08 13:21:00,
2013-03-08 14:26:00,57.9,54.7,30.28,NE,45,9.2,15.2,89,0.05,,,0.08,pywws,2013-03-08 13:26:00,
2013-03-08 14:31:00,57.4,54.5,30.28,SE,135,10.7,22.8,90,0.05,,,0.08,pywws,2013-03-08 13:31:00,
2013-03-08 14:36:00,57.9,54.7,30.27,WNW,292,7.6,13.6,89,0.05,,,0.08,pywws,2013-03-08 13:36:00,
2013-03-08 14:41:00,57.6,54.3,30.27,East,90,9.8,16.8,89,0.05,,,0.08,pywws,2013-03-08 13:41:00,
2013-03-08 14:46:00,58.1,54.6,30.27,SE,135,7.6,12.1,88,0.05,,,0.08,pywws,2013-03-08 13:46:00,
2013-03-08 14:51:00,57.4,53.5,30.27,SE,135,7.6,13.0,87,0.02,,,0.08,pywws,2013-03-08 13:51:00,
2013-03-08 15:01:00,58.8,53.7,30.27,East,90,6.0,9.8,83,0.01,,,0.08,pywws,2013-03-08 14:01:00,
2013-03-08 15:04:00,58.3,53.8,30.27,SE,135,6.0,9.2,85,0.02,,,0.08,pywws,2013-03-08 14:04:00,
2013-03-08 15:06:00,58.5,52.6,30.26,SE,135,8.3,16.8,81,0.01,,,0.08,pywws,2013-03-08 14:06:00,
2013-03-08 15:11:00,59.4,52.8,30.27,East,90,3.8,8.3,79,0.00,,,0.08,pywws,2013-03-08 14:11:00,
2013-03-08 15:16:00,59.5,52.7,30.27,South,180,3.8,6.9,78,0.00,,,0.08,pywws,2013-03-08 14:16:00,
2013-03-08 15:21:00,60.1,52.8,30.27,NE,45,5.4,11.4,77,0.00,,,0.08,pywws,2013-03-08 14:21:00,
2013-03-08 15:26:00,59.4,52.1,30.27,NE,45,3.8,6.9,77,0.00,,,0.08,pywws,2013-03-08 14:26:00,
2013-03-08 15:31:00,59.0,51.8,30.27,North,0,0.7,2.2,77,0.00,,,0.08,pywws,2013-03-08 14:31:00,
2013-03-08 15:36:00,60.3,53.7,30.27,NW,315,1.6,3.8,79,0.00,,,0.08,pywws,2013-03-08 14:36:00,
2013-03-08 15:41:00,59.0,52.8,30.27,West,270,0.7,1.6,80,0.00,,,0.08,pywws,2013-03-08 14:41:00,
2013-03-08 15:46:00,59.4,53.5,30.27,NW,315,0.7,2.2,81,0.00,,,0.08,pywws,2013-03-08 14:46:00,
2013-03-08 15:51:00,59.4,53.9,30.28,North,0,0.0,0.7,82,0.00,,,0.08,pywws,2013-03-08 14:51:00,
2013-03-08 16:01:00,60.4,54.6,30.27,NW,315,0.7,2.2,81,0.00,,,0.08,pywws,2013-03-08 15:01:00,
2013-03-08 16:04:00,59.4,53.5,30.27,West,270,0.7,2.2,81,0.00,,,0.08,pywws,2013-03-08 15:04:00,
2013-03-08 16:06:00,59.9,54.1,30.27,NW,315,0.0,0.7,81,0.00,,,0.08,pywws,2013-03-08 15:06:00,
2013-03-08 16:11:00,60.4,54.6,30.28,West,270,0.0,2.2,81,0.00,,,0.08,pywws,2013-03-08 15:11:00,
2013-03-08 16:16:00,61.2,55.6,30.28,NW,315,0.7,3.1,82,0.00,,,0.08,pywws,2013-03-08 15:16:00,
2013-03-08 16:21:00,60.6,53.0,30.28,SE,135,5.4,11.4,76,0.00,,,0.08,pywws,2013-03-08 15:21:00,
2013-03-08 16:26:00,61.7,54.1,30.28,South,180,3.1,6.0,76,0.00,,,0.08,pywws,2013-03-08 15:26:00,
2013-03-08 16:31:00,61.0,54.1,30.28,SSE,158,3.8,6.9,78,0.00,,,0.08,pywws,2013-03-08 15:31:00,
2013-03-08 16:36:00,61.0,54.8,30.29,SE,135,6.0,8.3,80,0.00,,,0.08,pywws,2013-03-08 15:36:00,
2013-03-08 16:41:00,60.4,54.6,30.29,SE,135,1.6,3.8,81,0.00,,,0.08,pywws,2013-03-08 15:41:00,
2013-03-08 16:46:00,60.4,54.2,30.29,SE,135,4.5,9.2,80,0.00,,,0.08,pywws,2013-03-08 15:46:00,
2013-03-08 16:51:00,60.4,54.2,30.29,SE,135,5.4,9.2,80,0.00,,,0.08,pywws,2013-03-08 15:51:00,
2013-03-08 17:01:00,60.4,54.9,30.29,East,90,3.8,6.0,82,0.00,,,0.08,pywws,2013-03-08 16:01:00,
2013-03-08 17:04:00,60.6,55.1,30.29,SW,225,3.1,6.0,82,0.00,,,0.08,pywws,2013-03-08 16:04:00,
2013-03-08 17:06:00,60.3,54.7,30.29,SE,135,9.2,14.5,82,0.00,,,0.08,pywws,2013-03-08 16:06:00,
2013-03-08 17:11:00,60.1,54.9,30.29,East,90,6.0,13.0,83,0.00,,,0.08,pywws,2013-03-08 16:11:00,
2013-03-08 17:16:00,60.1,54.9,30.30,East,90,6.0,13.0,83,0.00,,,0.08,pywws,2013-03-08 16:16:00,
2013-03-08 17:21:00,59.7,55.2,30.30,SE,135,5.4,9.8,85,0.00,,,0.08,pywws,2013-03-08 16:21:00,
2013-03-08 17:26:00,58.6,54.5,30.30,SE,135,5.4,9.2,86,0.00,,,0.08,pywws,2013-03-08 16:26:00,
2013-03-08 17:31:00,58.8,55.0,30.30,South,180,3.8,5.4,87,0.00,,,0.08,pywws,2013-03-08 16:31:00,
2013-03-08 17:36:00,59.2,55.6,30.30,SE,135,4.5,8.3,88,0.00,,,0.08,pywws,2013-03-08 16:36:00,
2013-03-08 17:41:00,59.5,56.0,30.30,South,180,6.9,10.7,88,0.00,,,0.08,pywws,2013-03-08 16:41:00,
2013-03-08 17:46:00,58.6,55.4,30.30,SE,135,6.0,9.8,89,0.00,,,0.08,pywws,2013-03-08 16:46:00,
2013-03-08 17:51:00,59.9,57.0,30.30,SW,225,5.4,11.4,90,0.00,,,0.08,pywws,2013-03-08 16:51:00,
2013-03-08 18:01:00,58.1,56.1,30.30,SE,135,10.7,16.8,93,0.00,,,0.08,pywws,2013-03-08 17:01:00,
2013-03-08 18:04:00,57.7,55.1,30.30,South,180,4.5,7.6,91,0.00,,,0.08,pywws,2013-03-08 17:04:00,
2013-03-08 18:06:00,57.9,55.9,30.30,SE,135,6.9,10.7,93,0.00,,,0.08,pywws,2013-03-08 17:06:00,
2013-03-08 18:11:00,57.4,55.7,30.30,WSW,248,6.9,14.5,94,0.00,,,0.08,pywws,2013-03-08 17:11:00,
2013-03-08 18:16:00,57.7,56.3,30.31,East,90,4.5,11.4,95,0.00,,,0.08,pywws,2013-03-08 17:16:00,
2013-03-08 18:21:00,57.2,55.8,30.31,SW,225,3.1,6.9,95,0.00,,,0.08,pywws,2013-03-08 17:21:00,
2013-03-08 18:26:00,57.0,55.6,30.31,SE,135,7.6,13.6,95,0.01,,,0.09,pywws,2013-03-08 17:26:00,
2013-03-08 18:31:00,56.8,55.7,30.31,SE,135,5.4,9.2,96,0.02,,,0.11,pywws,2013-03-08 17:31:00,
2013-03-08 18:36:00,56.8,56.0,30.31,SE,135,8.3,12.1,97,0.02,,,0.11,pywws,2013-03-08 17:36:00,
2013-03-08 18:41:00,56.5,55.6,30.31,North,0,4.5,8.3,97,0.02,,,0.11,pywws,2013-03-08 17:41:00,
2013-03-08 18:46:00,56.8,56.3,30.31,East,90,10.7,15.2,98,0.02,,,0.11,pywws,2013-03-08 17:46:00,
2013-03-08 18:51:00,56.5,55.9,30.31,East,90,6.9,9.8,98,0.02,,,0.11,pywws,2013-03-08 17:51:00,
2013-03-08 19:01:00,56.5,55.6,30.31,East,90,7.6,12.1,97,0.02,,,0.11,pywws,2013-03-08 18:01:00,
2013-03-08 19:04:00,56.5,55.6,30.31,SE,135,6.9,10.7,97,0.02,,,0.11,pywws,2013-03-08 18:04:00,
2013-03-08 19:06:00,57.4,56.2,30.31,SE,135,7.6,12.1,96,0.02,,,0.11,pywws,2013-03-08 18:06:00,
2013-03-08 19:11:00,56.7,55.5,30.32,SE,135,5.4,9.2,96,0.02,,,0.11,pywws,2013-03-08 18:11:00,
2013-03-08 19:16:00,56.7,55.8,30.32,East,90,9.8,14.5,97,0.05,,,0.13,pywws,2013-03-08 18:16:00,
2013-03-08 19:21:00,56.8,56.0,30.32,NW,315,5.4,10.7,97,0.05,,,0.13,pywws,2013-03-08 18:21:00,
2013-03-08 19:26:00,56.5,55.6,30.32,SE,135,3.8,7.6,97,0.04,,,0.13,pywws,2013-03-08 18:26:00,
2013-03-08 19:31:00,56.5,55.6,30.32,SE,135,5.4,9.2,97,0.02,,,0.13,pywws,2013-03-08 18:31:00,
2013-03-08 19:36:00,56.7,55.8,30.32,SE,135,5.4,9.2,97,0.02,,,0.13,pywws,2013-03-08 18:36:00,
2013-03-08 19:41:00,56.5,55.6,30.32,SE,135,3.8,6.9,97,0.02,,,0.13,pywws,2013-03-08 18:41:00,
2013-03-08 19:46:00,57.0,56.2,30.33,East,90,2.2,8.3,97,0.02,,,0.13,pywws,2013-03-08 18:46:00,
2013-03-08 19:51:00,56.8,56.0,30.33,East,90,5.4,12.1,97,0.02,,,0.13,pywws,2013-03-08 18:51:00,
2013-03-08 20:01:00,56.5,55.6,30.33,South,180,5.4,9.8,97,0.02,,,0.13,pywws,2013-03-08 19:01:00,
2013-03-08 20:04:00,56.8,56.0,30.33,South,180,4.5,6.9,97,0.02,,,0.13,pywws,2013-03-08 19:04:00,
2013-03-08 20:06:00,56.5,55.6,30.33,SE,135,3.8,11.4,97,0.02,,,0.13,pywws,2013-03-08 19:06:00,
2013-03-08 20:11:00,57.0,56.2,30.33,SE,135,4.5,6.9,97,0.02,,,0.13,pywws,2013-03-08 19:11:00,
2013-03-08 20:16:00,56.7,55.8,30.33,South,180,3.8,6.9,97,0.00,,,0.13,pywws,2013-03-08 19:16:00,
2013-03-08 20:21:00,56.5,55.4,30.33,East,90,3.1,6.0,96,0.00,,,0.13,pywws,2013-03-08 19:21:00,
2013-03-08 20:26:00,56.5,55.4,30.33,South,180,5.4,6.9,96,0.00,,,0.13,pywws,2013-03-08 19:26:00,
2013-03-08 20:31:00,56.7,55.5,30.33,East,90,5.4,12.1,96,0.00,,,0.13,pywws,2013-03-08 19:31:00,
2013-03-08 20:36:00,56.5,55.4,30.33,SE,135,3.8,7.6,96,0.00,,,0.13,pywws,2013-03-08 19:36:00,
2013-03-08 20:41:00,56.7,55.5,30.33,SSE,158,3.1,5.4,96,0.00,,,0.13,pywws,2013-03-08 19:41:00,
2013-03-08 20:46:00,55.8,54.6,30.33,South,180,5.4,9.8,96,0.00,,,0.13,pywws,2013-03-08 19:46:00,
2013-03-08 20:51:00,56.1,55.0,30.34,SW,225,3.1,4.5,96,0.01,,,0.14,pywws,2013-03-08 19:51:00,
2013-03-08 21:01:00,55.4,54.3,30.33,SW,225,2.2,6.0,96,0.01,,,0.14,pywws,2013-03-08 20:01:00,
2013-03-08 21:04:00,55.9,54.8,30.34,SE,135,2.2,4.5,96,0.01,,,0.14,pywws,2013-03-08 20:04:00,
2013-03-08 21:06:00,55.6,54.5,30.34,South,180,2.2,4.5,96,0.01,,,0.14,pywws,2013-03-08 20:06:00,
2013-03-08 21:11:00,55.4,54.0,30.34,South,180,3.1,6.9,95,0.01,,,0.14,pywws,2013-03-08 20:11:00,
2013-03-08 21:16:00,55.4,54.0,30.33,SW,225,3.1,5.4,95,0.01,,,0.14,pywws,2013-03-08 20:16:00,
2013-03-08 21:21:00,54.9,53.2,30.33,WNW,292,3.8,6.9,94,0.01,,,0.14,pywws,2013-03-08 20:21:00,
2013-03-08 21:26:00,55.8,54.1,30.33,South,180,3.1,4.5,94,0.01,,,0.14,pywws,2013-03-08 20:26:00,
2013-03-08 21:31:00,55.0,53.1,30.33,SW,225,1.6,4.5,93,0.01,,,0.14,pywws,2013-03-08 20:31:00,
2013-03-08 21:36:00,55.6,53.6,30.33,NW,315,3.8,7.6,93,0.01,,,0.14,pywws,2013-03-08 20:36:00,
2013-03-08 21:41:00,55.0,53.1,30.33,East,90,5.4,8.3,93,0.01,,,0.14,pywws,2013-03-08 20:41:00,
2013-03-08 21:46:00,55.2,53.2,30.34,South,180,5.4,8.3,93,0.01,,,0.14,pywws,2013-03-08 20:46:00,
2013-03-08 21:51:00,54.7,52.7,30.34,SE,135,3.1,6.0,93,0.00,,,0.14,pywws,2013-03-08 20:51:00,
2013-03-08 22:01:00,55.6,53.9,30.34,SE,135,2.2,6.0,94,0.00,,,0.14,pywws,2013-03-08 21:01:00,
2013-03-08 22:04:00,55.0,53.3,30.34,SE,135,4.5,6.9,94,0.00,,,0.14,pywws,2013-03-08 21:04:00,
2013-03-08 22:06:00,55.2,53.5,30.34,South,180,3.8,6.0,94,0.00,,,0.14,pywws,2013-03-08 21:06:00,
2013-03-08 22:11:00,55.4,53.7,30.34,SE,135,3.1,6.9,94,0.00,,,0.14,pywws,2013-03-08 21:11:00,
2013-03-08 22:16:00,55.4,54.0,30.34,SE,135,2.2,4.5,95,0.00,,,0.14,pywws,2013-03-08 21:16:00,
2013-03-08 22:21:00,54.7,53.3,30.34,South,180,3.1,5.4,95,0.00,,,0.14,pywws,2013-03-08 21:21:00,
2013-03-08 22:26:00,54.9,53.5,30.33,South,180,4.5,6.9,95,0.00,,,0.14,pywws,2013-03-08 21:26:00,
2013-03-08 22:31:00,54.7,53.3,30.33,SE,135,3.8,6.9,95,0.00,,,0.14,pywws,2013-03-08 21:31:00,
2013-03-08 22:36:00,53.8,52.4,30.33,NE,45,1.6,4.5,95,0.00,,,0.14,pywws,2013-03-08 21:36:00,
2013-03-08 22:41:00,54.9,53.7,30.33,SE,135,2.2,4.5,96,0.00,,,0.14,pywws,2013-03-08 21:41:00,
2013-03-08 22:46:00,53.8,52.7,30.33,SSE,158,4.5,6.0,96,0.00,,,0.14,pywws,2013-03-08 21:46:00,
2013-03-08 22:51:00,54.3,53.2,30.33,SSE,158,3.1,5.4,96,0.00,,,0.14,pywws,2013-03-08 21:51:00,
2013-03-08 23:01:00,55.0,54.2,30.33,East,90,3.8,6.0,97,0.00,,,0.14,pywws,2013-03-08 22:01:00,
2013-03-08 23:04:00,54.5,53.7,30.33,South,180,3.8,5.4,97,0.00,,,0.14,pywws,2013-03-08 22:04:00,
2013-03-08 23:06:00,54.3,53.5,30.34,SE,135,4.5,7.6,97,0.00,,,0.14,pywws,2013-03-08 22:06:00,
2013-03-08 23:11:00,55.0,54.2,30.33,South,180,3.1,4.5,97,0.00,,,0.14,pywws,2013-03-08 22:11:00,
2013-03-08 23:16:00,54.5,53.7,30.34,North,0,2.2,4.5,97,0.00,,,0.14,pywws,2013-03-08 22:16:00,
2013-03-08 23:21:00,54.7,53.8,30.33,SE,135,3.8,6.0,97,0.00,,,0.14,pywws,2013-03-08 22:21:00,
2013-03-08 23:26:00,54.9,54.0,30.33,SE,135,3.1,5.4,97,0.00,,,0.14,pywws,2013-03-08 22:26:00,
2013-03-08 23:31:00,54.5,53.7,30.33,East,90,2.2,4.5,97,0.00,,,0.14,pywws,2013-03-08 22:31:00,
2013-03-08 23:36:00,53.8,52.9,30.33,SE,135,5.4,8.3,97,0.00,,,0.14,pywws,2013-03-08 22:36:00,
2013-03-08 23:41:00,54.9,54.3,30.33,SE,135,5.4,8.3,98,0.00,,,0.14,pywws,2013-03-08 22:41:00,
2013-03-08 23:46:00,54.9,54.0,30.33,South,180,3.8,6.0,97,0.00,,,0.14,pywws,2013-03-08 22:46:00,
2013-03-08 23:51:00,54.5,53.7,30.33,SE,135,4.5,7.6,97,0.00,,,0.14,pywws,2013-03-08 22:51:00,